嘉手納基地の過去48時間の天気

嘉手納基地 (Kadena ab)

現在時刻: 1/23 13:16 JST (1/23 04:16 UTC) 以下の時間は現地時間です。

過去48時間のMETAR気象情報
時間 風向 風速(m/s) 視程 気温(℃) 湿度(%) 気圧(hPa) 天気現象
23 12:56 東北東 5 10km以上 19.1 59 1016.3
23 11:56 6 10km以上 20 56 1016.9
23 10:56 東北東 6 10km以上 19.7 55 1017.3
23 09:56 北東 6 10km以上 17.8 60 1018
23 08:56 北東 4 10km以上 16.9 66 1018
23 07:56 東北東 4 10km以上 14.2 77 1017.7
23 06:56 東北東 3 10km以上 12.1 82 1017.7
23 05:56 北東 4 10km以上 12.5 85 1017
23 04:56 北東 3 10km以上 13.1 85 1016.6
23 03:56 東北東 3 10km以上 12.2 82 1016.7
23 02:56 3 10km以上 12.8 81 1016.3
23 01:56 北北東 4 10km以上 15.2 67 1016.6
23 00:56 東北東 2 10km以上 14.9 77 1017.3
22 23:56 北北東 4 10km以上 15.1 71 1016.9
22 22:56 北北東 3 10km以上 15.6 74 1016.9
22 21:56 北東 4 10km以上 16.5 66 1016.9
22 20:56 北東 6 10km以上 16.8 64 1016.6
22 19:56 北北東 7 10km以上 16.9 65 1015.9
22 18:56 北北東 6 10km以上 17.3 66 1015.2
22 17:56 北北東 6 10km以上 17.5 66 1014.9
22 16:56 4 10km以上 18.2 69 1013.9
22 15:56 7 10km以上 18.8 68 1012.5
22 14:56 6 10km以上 19.1 71 1012.2
22 13:56 7 10km以上 19 75 1011.8
22 13:26 北北西 9 10km以上 19 78 1011.8
22 13:16 北北西 7 10km以上 19 78 1012.5
22 13:06 7 10km以上 19 78 1012.5
22 12:56 北北西 6 10km以上 19.5 75 1012.5
22 12:36 北北西 9 10km以上 19 83 1012.5
22 11:56 北北西 8 10km以上 19.2 81 1013.2
22 11:27 北北西 9 10km以上 19 88 1013.2
22 11:17 北北西 7 10km以上 19 88 1013.5
22 11:07 北北西 7 10km以上 19 94 1013.2
22 10:56 北北西 8 4,850m 19.2 91 1013.5 弱い雨 もや
22 10:51 北西 11 8,050m 20 94 1013.2 雨 もや
22 10:43 西 2 6,450m 20 94 1012.8 弱い雨 もや
22 10:33 西 3 10km以上 20 94 1012.8 弱い雨
22 10:23 西 2 10km以上 20 94 1012.5 弱い雨
22 10:13 西 2 10km以上 20 94 1012.5
22 10:03 西北西 2 10km以上 20 94 1012.1
22 09:56 西 2 10km以上 19.7 94 1012.1 弱い雨
22 09:46 静穏 0 10km以上 19 94 1012.2 弱い雨
22 09:28 静穏 0 10km以上 19 100 1011.8
22 09:06 西 2 6,450m 19 94 1012.2 弱い雨 もや
22 08:56 4 4,850m 18.8 96 1011.8 弱い雨 もや
22 08:44 4 4,850m 19 94 1012.2 雨 もや
22 08:34 北西 3 4,850m 19 94 1012.5 弱い雨 もや
22 08:24 北北西 3 2,800m 19 94 1012.2 雨 もや
22 08:07 静穏 0 1,000m 19 94 1012.2 強い雨
22 07:59 2 1,600m 19 94 1012.2 強い雨 もや
22 07:56 北北東 2 2,200m 18.6 96 1012.2 強い雨 もや
22 07:43 静穏 0 1,800m 19 94 1012.2 雨 もや
22 07:35 静穏 0 1,600m 19 94 1012.2 強い雨 もや
22 07:32 北西 2 2,000m 19 94 1012.5 強い雨 もや
22 07:22 北西 3 1,800m 19 94 1012.5 雨 もや
22 07:12 静穏 0 1,800m 19 94 1012.2 強い雨 もや
22 07:05 南南西 3 2,000m 19 94 1012.5 強い雨 もや
22 06:56 西 2 3,200m 19.4 91 1012.2 強い雨 もや
22 06:53 西 2 3,200m 19 94 1012.2 雨 もや
22 06:33 2 10km以上 20 83 1011.5 弱い雨
22 05:56 静穏 0 10km以上 19.8 91 1011.5
22 05:08 南東 3 10km以上 20 94 1011.1
22 04:56 東南東 3 10km以上 19.6 93 1011.5 弱い雨
RODN 230356Z AUTO 07010KT 10SM BKN046 OVC060 19/11 A2999 RMK AO2 SLP163 T01910109
RODN 230256Z AUTO 08012G19KT 10SM OVC055 20/11 A3001 RMK AO2 SLP169 T02000109
RODN 230156Z AUTO 07012KT 10SM SCT060 20/10 A3002 RMK AO2 SLP173 T01970104
RODN 230056Z AUTO 05011KT 10SM OVC055 18/10 A3004 RMK AO2 SLP180 T01780099
RODN 222356Z AUTO 05008KT 9SM SCT055 17/11 A3004 RMK AO2 SLP180 70008 T01690105 10169 20110 51008
RODN 222256Z AUTO 07008KT 10SM BKN060 OVC120 14/10 A3003 RMK AO2 SLP177 T01420102
RODN 222156Z AUTO 06006KT 10SM CLR 12/09 A3003 RMK AO2 SLP177 T01210091
RODN 222056Z AUTO 05008KT 10SM FEW050 13/10 A3001 RMK AO2 SLP170 T01250100 52007
RODN 221956Z AUTO 04005KT 10SM OVC049 13/11 A3000 RMK AO2 SLP166 T01310106
RODN 221856Z AUTO 07005KT 10SM CLR 12/09 A3000 RMK AO2 SLP167 T01220092
RODN 221756Z AUTO 08006KT 10SM CLR 13/10 A2999 RMK AO2 SLP163 T01280096 10168 20128 58008
RODN 221656Z AUTO 03008KT 10SM BKN220 15/09 A3000 RMK AO2 SLP166 T01520091
RODN 221556Z AUTO 06004KT 10SM OVC046 15/11 A3002 RMK AO2 SLP173 T01490109
RODN 221456Z AUTO 02007KT 10SM SCT046 15/10 A3001 RMK AO2 SLP169 T01510099 402010151 50006
RODN 221356Z AUTO 03006KT 10SM OVC045 16/11 A3001 RMK AO2 SLP169 T01560110
RODN 221256Z AUTO 04008KT 10SM OVC044 17/10 A3001 RMK AO2 SLP169 T01650101
RODN 221156Z AUTO 04011KT 10SM BKN040 BKN210 17/10 A3000 RMK AO2 SLP166 T01680099 10191 20167 52015
RODN 221056Z AUTO 03014KT 10SM SCT040 BKN170 17/10 A2998 RMK AO2 SLP159 T01690103
RODN 220956Z AUTO 03011KT 10SM BKN038 OVC140 17/11 A2996 RMK AO2 SLP152 T01730109
RODN 220856Z AUTO 02012KT 10SM SCT040 BKN130 18/11 A2995 RMK AO2 SLP149 T01750111 52027
RODN 220756Z AUTO 01008KT 10SM FEW031 BKN039 BKN130 18/12 A2992 RMK AO2 SLP139 T01820124
RODN 220656Z AUTO 36014G22KT 10SM FEW026 BKN035 19/13 A2988 RMK AO2 SLP125 T01880128
RODN 220556Z AUTO 36011G19KT 10SM SCT024 BKN033 BKN120 19/14 A2987 RMK AO2 SLP122 60008 T01910137 10201 20188 55010
RODN 220456Z AUTO 35014G20KT 10SM FEW023 FEW034 SCT120 19/15 A2986 RMK AO2 SLP118 T01900145
RODN 220426Z AUTO 34017KT 10SM SCT023 OVC032 19/15 A2986 RMK AO2 PRESFR SLP118
RODN 220416Z AUTO 33013G20KT 10SM SCT023 OVC029 19/15 A2988 RMK AO2 CIG 023V032 CIG 027 RWY23 SLP125
RODN 220406Z AUTO 35013G20KT 10SM SCT022 OVC032 19/15 A2988 RMK AO2 SLP125
RODN 220356Z AUTO 33012G22KT 10SM BKN023 OVC032 20/15 A2988 RMK AO2 SLP125 T01950149
RODN 220336Z AUTO 34017G23KT 10SM BKN023 BKN030 OVC035 19/16 A2988 RMK AO2 SLP125
RODN 220256Z AUTO 33016G22KT 10SM SCT020 BKN026 OVC031 19/16 A2990 RMK AO2 RAE06 CIG 019V026 BKN V OVC SLP132 P0001 60008 T01920158 50012
RODN 220227Z AUTO 34017G22KT 10SM BKN016 BKN023 BKN028 OVC060 19/17 A2990 RMK AO2 RAE06 CIG 016V026 CIG 014 RWY23 SLP132
RODN 220217Z AUTO 34013G20KT 10SM SCT014 BKN026 OVC060 19/17 A2991 RMK AO2 RAE06 CIG 014 RWY23 SLP135
RODN 220207Z AUTO 33013G20KT 10SM SCT004 SCT013 BKN022 BKN028 OVC060 19/18 A2990 RMK AO2 RAE06 CIG 005V022 CIG 012 RWY23 SLP132
RODN 220156Z AUTO 33016G27KT 3SM -RA BR BKN005 19/18 A2991 RMK AO2 PK WND 30027/49 RAE03RAB23 BKN V OVC SLP135 P0005 T01920177
RODN 220151Z AUTO 32022G27KT 5SM RA BR OVC005 20/19 A2990 RMK AO2 WSHFT 48 RAE03RAB23 SLP132
RODN 220143Z AUTO 27004KT 4SM -RA BR OVC005 20/19 A2989 RMK AO2 RAE03RAB23 CIG 005V007 SLP128
RODN 220133Z AUTO 28005KT 8SM -RA OVC007 20/19 A2989 RMK AO2 RAE03RAB23 SLP128
RODN 220123Z AUTO 27003KT 10SM -RA OVC008 20/19 A2988 RMK AO2 RAE03RAB23 SLP125
RODN 220113Z AUTO 27004KT 9SM OVC008 20/19 A2988 RMK AO2 RAE03 CIG 008V010 OVC V BKN SLP125
RODN 220103Z AUTO 29004KT 8SM BKN010 OVC095 20/19 A2987 RMK AO2 RAE03 CIG 010V095 SLP121
RODN 220056Z AUTO 28003KT 7SM -RA BKN010 BKN095 20/19 A2987 RMK AO2 RAE18RAB46 CIG 010V100 SLP121 P0002 T01970187
RODN 220046Z AUTO 00000KT 10SM -RA FEW012 BKN100 19/18 A2987 RMK AO2 RAE18RAB46 SLP122
RODN 220028Z 00000KT 9SM FEW002 FEW036 SCT100 19/19 A2986 RMK AO2A RAE18 SLP118
RODN 220006Z 28003KT 4SM -RA BR BKN002 19/18 A2987 RMK AO2A BKN V OVC SLP122
RODN 212356Z AUTO 35007KT 3SM -RA BR BKN001 OVC005 19/18 A2986 RMK AO2 SLP118 P0028 60103 70106 T01880181 10200 20185 50004
RODN 212344Z AUTO 35007KT 3SM RA BR BKN001 OVC005 19/18 A2987 RMK AO2 CIG 001V003 SLP122
RODN 212334Z AUTO 32006KT 3SM -RA BR BKN003 19/18 A2988 RMK AO2 SLP125
RODN 212324Z 34005KT 1 3/4SM RA BR BKN002 19/18 A2987 RMK AO2A VIS 3/4V1 3/4 SLP122
RODN 212307Z 00000KT 5/8SM R05/1600V5000FT +RA OVC001 19/18 A2987 RMK AO2A SLP122
RODN 212259Z AUTO 01003KT 1SM R05/4000VP6000FT +RA BR SCT001 19/18 A2987 RMK AO2 VIS 1V1 3/4 SLP122
RODN 212256Z AUTO 02004KT 1 3/8SM +RA BR SCT001 19/18 A2987 RMK AO2 SLP122 P0056 T01860179
RODN 212243Z AUTO 00000KT 1 1/8SM R05/6000FT RA BR SCT001 OVC029 19/18 A2987 RMK AO2 CIG 016 RWY23 SLP122
RODN 212235Z AUTO 00000KT 1SM R05/4500V6000FT +RA BR FEW001 OVC025 19/18 A2987 RMK AO2 VIS 1V1 1/2 CIG 016 RWY23 SLP122
RODN 212232Z AUTO 32003KT 1 1/4SM +RA BR FEW001 OVC024 19/18 A2988 RMK AO2 CIG 016 RWY23 SLP125
RODN 212222Z AUTO 31005KT 1 1/8SM R05/6000FT RA BR FEW001 19/18 A2988 RMK AO2 SLP125
RODN 212212Z AUTO 00000KT 1 1/8SM R05/4500FT +RA BR FEW001 19/18 A2987 RMK AO2 SLP122
RODN 212205Z AUTO 20006KT 1 1/4SM R05/5000FT +RA BR SCT001 19/18 A2988 RMK AO2 VIS 1 1/4V2 SLP125
RODN 212156Z AUTO 27004KT 2SM +RA BR SCT001 BKN026 OVC035 19/18 A2987 RMK AO2 RAB33 CIG 021 RWY23 SLP122 P0018 T01940179
RODN 212153Z AUTO 26003KT 2SM RA BR SCT001 BKN026 OVC035 19/18 A2987 RMK AO2 VIS 1 5/8V2 1/2 RAB33 CIG 021 RWY23 SLP122
RODN 212133Z AUTO 19003KT 10SM -RA OVC039 20/17 A2985 RMK AO2 RAB33 SLP115
RODN 212056Z AUTO 00000KT 10SM OVC044 20/18 A2985 RMK AO2 RAE06DZB06E08 SLP115 P0001 60001 T01980183 55014
RODN 212008Z AUTO 14005KT 7SM FEW034 OVC046 20/19 A2984 RMK AO2 RAE06DZB06E08 SLP111
RODN 211956Z AUTO 11006KT 7SM -RA OVC047 20/18 A2985 RMK AO2 RAE09DZB09E10RAB53 SLP115 P0000 T01960184